Time;durP1;ratioP1;P1;durP2;ratioP2;P2;SDS_P1;SDS_P2;PMS_P1;PMS_P2;Temp;Humidity;BMP_temperature;BMP_pressure;BME280_temperature;BME280_humidity;BME280_pressure;Samples;Min_cycle;Max_cycle;Signal;HPM_P1;HPM_P2
2022/10/16 00:00:35;;;;;;;5.80;1.50;;;;;;;;;;5033630;28;20079;-64
2022/10/16 00:03:01;;;;;;;8.95;1.88;;;;;;;;;;5033632;28;20017;-64
2022/10/16 00:05:28;;;;;;;5.88;2.28;;;;;;;;;;5033420;28;20063;-64
2022/10/16 00:07:54;;;;;;;8.80;2.22;;;;;;;;;;5033164;28;20112;-64
2022/10/16 00:10:20;;;;;;;7.38;1.60;;;;;;;;;;5032955;28;20037;-64
2022/10/16 00:12:46;;;;;;;9.77;1.52;;;;;;;;;;5033464;28;20014;-64
2022/10/16 00:15:12;;;;;;;9.45;1.50;;;;;;;;;;5032778;28;20037;-64
2022/10/16 00:17:39;;;;;;;7.10;1.60;;;;;;;;;;5033593;28;20547;-64
2022/10/16 00:20:05;;;;;;;7.57;1.60;;;;;;;;;;5033701;28;20347;-64
2022/10/16 00:22:31;;;;;;;12.32;1.83;;;;;;;;;;5033175;28;20041;-64
2022/10/16 00:24:58;;;;;;;14.80;1.98;;;;;;;;;;5033386;28;20026;-64
2022/10/16 00:27:24;;;;;;;11.25;3.00;;;;;;;;;;5033175;28;20029;-64
2022/10/16 00:29:51;;;;;;;3.83;1.42;;;;;;;;;;5033568;28;20064;-64
2022/10/16 00:32:17;;;;;;;8.93;1.70;;;;;;;;;;5031843;28;20436;-64
2022/10/16 00:34:43;;;;;;;6.00;1.55;;;;;;;;;;5033432;28;20087;-64
2022/10/16 00:37:10;;;;;;;8.77;1.80;;;;;;;;;;5032920;28;20512;-64
2022/10/16 00:39:36;;;;;;;10.32;2.28;;;;;;;;;;5032927;28;20052;-64
2022/10/16 00:42:02;;;;;;;6.70;1.27;;;;;;;;;;5032767;28;20056;-64
2022/10/16 00:44:47;;;;;;;9.52;1.83;;;;;;;;;;5032844;28;20559;-64
2022/10/16 00:47:19;;;;;;;2.83;1.30;;;;;;;;;;5032876;28;20428;-64
2022/10/16 00:49:46;;;;;;;12.50;2.13;;;;;;;;;;5017759;28;20477;-64
2022/10/16 00:52:13;;;;;;;8.23;2.10;;;;;;;;;;5032638;28;20026;-64
2022/10/16 00:54:39;;;;;;;9.90;2.53;;;;;;;;;;5032645;28;20068;-64
2022/10/16 00:57:06;;;;;;;7.97;1.58;;;;;;;;;;5032803;28;20469;-64
2022/10/16 00:59:34;;;;;;;6.43;1.60;;;;;;;;;;5032698;28;20080;-64
2022/10/16 01:02:00;;;;;;;10.20;1.60;;;;;;;;;;5032699;28;20112;-64
2022/10/16 01:04:30;;;;;;;5.20;1.48;;;;;;;;;;5032527;28;20053;-64
2022/10/16 01:06:56;;;;;;;8.98;1.90;;;;;;;;;;5032310;28;21577;-64
2022/10/16 01:09:26;;;;;;;13.77;1.98;;;;;;;;;;5032331;28;20041;-64
2022/10/16 01:12:06;;;;;;;5.53;1.45;;;;;;;;;;5032524;28;20060;-64
2022/10/16 01:14:43;;;;;;;4.97;1.40;;;;;;;;;;5032350;28;20052;-64
2022/10/16 01:17:16;;;;;;;7.30;1.80;;;;;;;;;;5032739;28;20397;-64
2022/10/16 01:19:45;;;;;;;7.57;1.50;;;;;;;;;;5032242;28;20056;-64
2022/10/16 01:22:11;;;;;;;10.43;1.98;;;;;;;;;;5032615;28;20052;-64
2022/10/16 01:24:44;;;;;;;12.77;1.70;;;;;;;;;;5032277;28;20033;-64
2022/10/16 01:27:30;;;;;;;7.43;1.20;;;;;;;;;;5032598;28;20033;-64
2022/10/16 01:30:22;;;;;;;4.30;1.63;;;;;;;;;;5017958;28;20126;-64
2022/10/16 01:32:57;;;;;;;8.32;1.58;;;;;;;;;;5037269;28;20057;-64
2022/10/16 01:35:27;;;;;;;6.38;1.27;;;;;;;;;;5038547;28;20033;-64
2022/10/16 01:37:59;;;;;;;6.30;1.70;;;;;;;;;;5038993;28;20075;-64
2022/10/16 01:40:27;;;;;;;8.45;1.23;;;;;;;;;;5038899;28;20108;-64
2022/10/16 01:42:56;;;;;;;12.70;2.83;;;;;;;;;;5039029;28;20471;-64
2022/10/16 01:45:22;;;;;;;7.90;1.88;;;;;;;;;;5038780;28;20039;-64
2022/10/16 01:47:50;;;;;;;5.25;1.25;;;;;;;;;;5038893;28;20029;-64
2022/10/16 01:50:17;;;;;;;8.77;1.33;;;;;;;;;;5038634;28;20381;-64
2022/10/16 01:52:45;;;;;;;6.50;1.55;;;;;;;;;;5038602;28;20025;-64
2022/10/16 01:55:13;;;;;;;7.15;1.70;;;;;;;;;;5038870;28;20045;-64
2022/10/16 01:57:42;;;;;;;6.32;1.40;;;;;;;;;;5038625;28;20374;-64
2022/10/16 02:00:10;;;;;;;9.43;1.90;;;;;;;;;;5039114;28;20048;-64
2022/10/16 02:02:45;;;;;;;13.45;1.50;;;;;;;;;;5037550;28;20033;-64
2022/10/16 02:05:15;;;;;;;13.43;1.50;;;;;;;;;;5038588;28;20077;-64
2022/10/16 02:07:42;;;;;;;3.88;1.10;;;;;;;;;;5038045;28;20037;-64
2022/10/16 02:10:08;;;;;;;8.50;1.55;;;;;;;;;;5038761;28;20047;-64
2022/10/16 02:12:36;;;;;;;5.07;1.10;;;;;;;;;;5038419;28;20029;-64
2022/10/16 02:15:02;;;;;;;6.95;1.20;;;;;;;;;;5037641;28;20036;-64
2022/10/16 02:17:29;;;;;;;8.15;1.33;;;;;;;;;;5038718;28;20068;-64
2022/10/16 02:19:56;;;;;;;7.13;1.40;;;;;;;;;;5038369;28;20009;-64
2022/10/16 02:22:23;;;;;;;7.57;1.60;;;;;;;;;;5037390;28;20033;-64
2022/10/16 02:24:54;;;;;;;4.07;1.20;;;;;;;;;;5038323;28;20490;-64
2022/10/16 02:27:23;;;;;;;5.47;1.27;;;;;;;;;;5038417;28;20492;-64
2022/10/16 02:29:53;;;;;;;10.70;1.38;;;;;;;;;;5038221;28;20121;-64
2022/10/16 02:32:21;;;;;;;8.30;1.50;;;;;;;;;;5037145;28;20044;-64
2022/10/16 02:34:48;;;;;;;5.53;1.40;;;;;;;;;;5034771;28;20041;-64
2022/10/16 02:37:15;;;;;;;8.40;1.05;;;;;;;;;;5037548;28;20497;-64
2022/10/16 02:39:41;;;;;;;12.00;1.15;;;;;;;;;;5037344;28;20071;-64
2022/10/16 02:42:12;;;;;;;9.82;1.38;;;;;;;;;;5038211;28;20134;-64
2022/10/16 02:44:39;;;;;;;4.53;1.00;;;;;;;;;;5033558;28;20065;-64
2022/10/16 02:47:05;;;;;;;6.30;2.70;;;;;;;;;;5034748;28;20033;-64
2022/10/16 02:49:31;;;;;;;4.07;1.27;;;;;;;;;;5034980;28;20033;-64
2022/10/16 02:51:57;;;;;;;3.95;1.00;;;;;;;;;;5034433;28;20063;-64
2022/10/16 02:54:23;;;;;;;3.33;0.93;;;;;;;;;;5034984;28;20519;-64
2022/10/16 02:56:49;;;;;;;8.48;1.27;;;;;;;;;;5034582;28;20398;-64
2022/10/16 02:59:16;;;;;;;4.88;1.02;;;;;;;;;;5035120;28;20040;-64
2022/10/16 03:01:42;;;;;;;2.67;1.10;;;;;;;;;;5034188;28;20057;-64
2022/10/16 03:04:08;;;;;;;8.90;1.45;;;;;;;;;;5034980;28;20390;-64
2022/10/16 03:06:36;;;;;;;2.42;1.00;;;;;;;;;;5034491;28;20037;-64
2022/10/16 03:09:02;;;;;;;3.03;0.70;;;;;;;;;;5034396;28;20112;-64
2022/10/16 03:11:28;;;;;;;9.38;0.93;;;;;;;;;;5034719;28;20045;-64
2022/10/16 03:13:55;;;;;;;4.97;1.08;;;;;;;;;;5034506;28;20030;-64
2022/10/16 03:16:21;;;;;;;3.75;0.90;;;;;;;;;;5034473;28;20069;-64
2022/10/16 03:18:50;;;;;;;5.80;1.02;;;;;;;;;;5034205;28;20116;-64
2022/10/16 03:21:16;;;;;;;3.72;1.00;;;;;;;;;;5033668;28;20029;-64
2022/10/16 03:23:42;;;;;;;4.10;0.98;;;;;;;;;;5034649;28;20450;-64
2022/10/16 03:26:08;;;;;;;3.70;0.85;;;;;;;;;;5032054;28;20107;-64
2022/10/16 03:28:34;;;;;;;1.15;0.85;;;;;;;;;;5047980;28;20033;-64
2022/10/16 03:31:01;;;;;;;2.38;1.00;;;;;;;;;;5033662;28;20034;-64
2022/10/16 03:33:27;;;;;;;6.15;0.98;;;;;;;;;;5034309;28;20112;-64
2022/10/16 03:35:54;;;;;;;8.00;1.15;;;;;;;;;;5038249;28;20470;-64
2022/10/16 03:38:20;;;;;;;4.90;1.15;;;;;;;;;;5033775;28;20018;-64
2022/10/16 03:40:46;;;;;;;8.52;1.52;;;;;;;;;;5033510;28;20030;-64
2022/10/16 03:43:13;;;;;;;3.70;1.00;;;;;;;;;;5034340;28;20041;-64
2022/10/16 03:45:39;;;;;;;3.33;1.02;;;;;;;;;;5033055;28;20088;-64
2022/10/16 03:48:05;;;;;;;2.92;0.90;;;;;;;;;;5032923;28;20033;-64
2022/10/16 03:50:32;;;;;;;4.43;0.90;;;;;;;;;;5033585;28;20021;-64
2022/10/16 03:52:58;;;;;;;6.28;1.20;;;;;;;;;;5033018;28;20048;-64
2022/10/16 03:55:24;;;;;;;6.13;0.90;;;;;;;;;;5033075;28;20065;-64
2022/10/16 03:57:50;;;;;;;5.32;1.67;;;;;;;;;;5033469;28;20068;-64
2022/10/16 04:00:16;;;;;;;3.25;1.23;;;;;;;;;;5040603;28;20025;-64
2022/10/16 04:02:43;;;;;;;6.53;0.80;;;;;;;;;;5030406;28;20140;-64
2022/10/16 04:05:09;;;;;;;6.03;1.00;;;;;;;;;;5031763;28;20539;-64
2022/10/16 04:07:35;;;;;;;10.15;1.20;;;;;;;;;;5033321;28;20029;-64
2022/10/16 04:10:01;;;;;;;6.25;1.08;;;;;;;;;;5032138;28;20116;-63
2022/10/16 04:12:27;;;;;;;6.05;1.02;;;;;;;;;;5032290;28;20026;-63
2022/10/16 04:14:53;;;;;;;2.65;0.88;;;;;;;;;;5031117;28;20021;-63
2022/10/16 04:17:19;;;;;;;4.97;0.90;;;;;;;;;;5032796;28;20108;-63
2022/10/16 04:19:45;;;;;;;5.82;0.80;;;;;;;;;;5033140;28;20061;-63
2022/10/16 04:22:12;;;;;;;5.90;0.90;;;;;;;;;;5031771;28;20481;-63
2022/10/16 04:24:38;;;;;;;4.05;2.55;;;;;;;;;;5033111;28;20101;-63
2022/10/16 04:27:04;;;;;;;2.83;1.02;;;;;;;;;;5032491;28;20048;-63
2022/10/16 04:29:30;;;;;;;6.22;0.93;;;;;;;;;;5032859;28;20075;-63
2022/10/16 04:31:56;;;;;;;7.45;0.88;;;;;;;;;;5032807;28;20516;-63
2022/10/16 04:34:22;;;;;;;6.38;1.02;;;;;;;;;;5032970;28;20047;-63
2022/10/16 04:36:49;;;;;;;3.38;0.93;;;;;;;;;;5032886;28;20037;-63
2022/10/16 04:39:15;;;;;;;5.95;1.00;;;;;;;;;;5033057;28;20142;-63
2022/10/16 04:41:41;;;;;;;11.57;1.23;;;;;;;;;;5031523;28;20119;-63
2022/10/16 04:44:07;;;;;;;7.28;1.27;;;;;;;;;;5032259;28;20049;-63
2022/10/16 04:46:34;;;;;;;9.93;0.90;;;;;;;;;;5032895;28;20029;-63
2022/10/16 04:49:00;;;;;;;0.70;0.50;;;;;;;;;;5032541;28;20075;-63
2022/10/16 04:51:27;;;;;;;6.75;0.80;;;;;;;;;;5032468;28;20394;-63
2022/10/16 04:53:54;;;;;;;4.38;0.90;;;;;;;;;;5028129;28;20022;-63
2022/10/16 04:56:21;;;;;;;9.52;1.20;;;;;;;;;;5031382;28;20142;-63
2022/10/16 04:58:47;;;;;;;11.68;1.13;;;;;;;;;;5031474;28;20028;-63
2022/10/16 05:01:14;;;;;;;5.95;1.05;;;;;;;;;;5032527;28;20017;-63
2022/10/16 05:03:40;;;;;;;3.67;0.80;;;;;;;;;;5032384;28;20458;-63
2022/10/16 05:06:06;;;;;;;5.75;1.08;;;;;;;;;;5031403;28;20029;-63
2022/10/16 05:08:32;;;;;;;15.80;1.73;;;;;;;;;;5023848;28;20014;-63
2022/10/16 05:10:58;;;;;;;8.48;1.08;;;;;;;;;;5032258;28;20059;-63
2022/10/16 05:13:25;;;;;;;5.43;1.52;;;;;;;;;;5031624;28;20037;-63
2022/10/16 05:15:51;;;;;;;3.00;0.98;;;;;;;;;;5032300;28;20040;-63
2022/10/16 05:18:17;;;;;;;5.57;0.90;;;;;;;;;;5031488;28;20023;-63
2022/10/16 05:20:43;;;;;;;5.13;0.98;;;;;;;;;;5032512;28;20033;-63
2022/10/16 05:23:12;;;;;;;4.20;0.88;;;;;;;;;;5032238;28;20101;-63
2022/10/16 05:25:38;;;;;;;3.17;1.10;;;;;;;;;;5030102;28;20041;-63
2022/10/16 05:28:04;;;;;;;7.85;1.08;;;;;;;;;;5031774;28;20075;-63
2022/10/16 05:30:31;;;;;;;8.88;1.17;;;;;;;;;;5031966;28;20036;-63
2022/10/16 05:32:57;;;;;;;5.80;1.10;;;;;;;;;;5030408;28;20089;-63
2022/10/16 05:35:23;;;;;;;9.57;1.58;;;;;;;;;;5034409;28;20053;-63
2022/10/16 05:37:49;;;;;;;6.80;1.25;;;;;;;;;;5031868;28;20104;-63
2022/10/16 05:40:16;;;;;;;4.78;0.85;;;;;;;;;;5030562;28;20017;-63
2022/10/16 05:42:42;;;;;;;6.25;1.13;;;;;;;;;;5029010;28;20109;-63
2022/10/16 05:45:10;;;;;;;3.67;0.93;;;;;;;;;;5031798;28;20029;-63
2022/10/16 05:47:36;;;;;;;6.28;1.30;;;;;;;;;;5024894;28;20033;-63
2022/10/16 05:50:04;;;;;;;6.43;1.35;;;;;;;;;;5032406;28;20084;-63
2022/10/16 05:52:30;;;;;;;7.45;1.20;;;;;;;;;;5034263;28;20527;-63
2022/10/16 05:54:56;;;;;;;8.50;2.03;;;;;;;;;;5030877;28;20561;-68
2022/10/16 05:57:22;;;;;;;5.60;2.53;;;;;;;;;;5019048;28;20080;-64
2022/10/16 05:59:48;;;;;;;5.38;1.55;;;;;;;;;;5030228;28;20025;-64
2022/10/16 06:02:14;;;;;;;5.93;1.52;;;;;;;;;;5030123;28;20063;-64
2022/10/16 06:04:41;;;;;;;9.43;1.30;;;;;;;;;;5028058;28;20034;-64
2022/10/16 06:07:07;;;;;;;6.22;1.58;;;;;;;;;;5029807;28;20036;-64
2022/10/16 06:09:33;;;;;;;5.30;1.40;;;;;;;;;;5030262;28;20026;-64
2022/10/16 06:11:59;;;;;;;5.90;1.63;;;;;;;;;;5021588;28;20030;-64
2022/10/16 06:14:25;;;;;;;9.00;1.80;;;;;;;;;;5030796;28;20032;-64
2022/10/16 06:16:51;;;;;;;11.32;1.70;;;;;;;;;;5030109;28;20037;-64
2022/10/16 06:19:18;;;;;;;7.88;2.75;;;;;;;;;;5032324;28;20049;-65
2022/10/16 06:21:44;;;;;;;9.88;1.73;;;;;;;;;;5021977;28;20120;-65
2022/10/16 06:24:11;;;;;;;9.27;2.13;;;;;;;;;;5025384;28;20048;-65
2022/10/16 06:26:38;;;;;;;9.27;2.90;;;;;;;;;;5023911;28;20033;-65
2022/10/16 06:29:05;;;;;;;18.55;5.18;;;;;;;;;;5024812;28;20040;-65
2022/10/16 06:31:33;;;;;;;7.68;4.00;;;;;;;;;;5031092;28;20100;-65
2022/10/16 06:33:59;;;;;;;13.38;3.53;;;;;;;;;;5030997;28;20030;-65
2022/10/16 06:36:26;;;;;;;9.57;3.17;;;;;;;;;;5021534;28;20026;-65
2022/10/16 06:38:52;;;;;;;14.35;2.72;;;;;;;;;;5026839;28;20075;-65
2022/10/16 06:41:19;;;;;;;18.90;3.10;;;;;;;;;;5027395;28;20033;-65
2022/10/16 06:43:45;;;;;;;12.15;2.63;;;;;;;;;;5023610;28;20022;-65
2022/10/16 06:46:12;;;;;;;33.20;3.20;;;;;;;;;;5029975;28;20033;-64
2022/10/16 06:48:39;;;;;;;34.65;3.40;;;;;;;;;;5031214;28;20048;-64
2022/10/16 06:51:05;;;;;;;7.95;2.80;;;;;;;;;;5028628;28;20059;-64
2022/10/16 06:53:35;;;;;;;26.40;3.58;;;;;;;;;;5027183;28;20022;-64
2022/10/16 06:56:15;;;;;;;26.13;3.92;;;;;;;;;;5033871;28;20037;-64
2022/10/16 06:58:42;;;;;;;21.80;3.35;;;;;;;;;;5032369;28;20159;-64
2022/10/16 07:01:08;;;;;;;45.22;3.90;;;;;;;;;;5024804;28;20543;-65
2022/10/16 07:03:37;;;;;;;53.05;3.92;;;;;;;;;;5030604;28;20030;-65
2022/10/16 07:06:03;;;;;;;50.90;4.30;;;;;;;;;;5021187;28;20029;-65
2022/10/16 07:08:33;;;;;;;49.35;3.78;;;;;;;;;;5023116;28;20061;-65
2022/10/16 07:11:00;;;;;;;65.63;4.82;;;;;;;;;;5025209;28;20107;-65
2022/10/16 07:13:26;;;;;;;48.00;4.03;;;;;;;;;;5027439;28;20018;-65
2022/10/16 07:15:52;;;;;;;49.25;3.72;;;;;;;;;;5020128;28;20025;-65
2022/10/16 07:18:18;;;;;;;41.95;3.45;;;;;;;;;;5021822;28;20040;-65
2022/10/16 07:20:44;;;;;;;66.07;4.80;;;;;;;;;;5024651;28;20025;-65
2022/10/16 07:23:10;;;;;;;50.67;4.05;;;;;;;;;;5029997;28;20029;-64
2022/10/16 07:25:37;;;;;;;61.05;4.13;;;;;;;;;;5020184;28;20083;-64
2022/10/16 07:28:03;;;;;;;37.97;3.47;;;;;;;;;;5022708;28;20043;-64
2022/10/16 07:30:29;;;;;;;19.65;2.80;;;;;;;;;;5021242;28;20029;-64
2022/10/16 07:32:55;;;;;;;8.65;2.40;;;;;;;;;;5027300;28;20493;-64
2022/10/16 07:35:21;;;;;;;28.38;5.00;;;;;;;;;;5021889;28;20132;-64
2022/10/16 07:37:47;;;;;;;9.70;2.17;;;;;;;;;;5023158;28;20109;-64
2022/10/16 07:40:14;;;;;;;32.08;3.53;;;;;;;;;;5020640;28;20026;-66
2022/10/16 07:42:40;;;;;;;25.02;3.03;;;;;;;;;;5031068;28;20548;-65
2022/10/16 07:45:06;;;;;;;25.73;2.80;;;;;;;;;;5039126;28;20091;-66
2022/10/16 07:47:32;;;;;;;8.75;2.67;;;;;;;;;;5029292;28;20056;-65
2022/10/16 07:49:58;;;;;;;15.52;3.22;;;;;;;;;;5029564;28;20025;-65
2022/10/16 07:52:24;;;;;;;8.30;2.55;;;;;;;;;;5028775;28;20049;-65
2022/10/16 07:54:50;;;;;;;4.03;2.20;;;;;;;;;;5030703;28;20020;-65
2022/10/16 07:57:19;;;;;;;7.70;2.47;;;;;;;;;;5036889;28;20037;-65
2022/10/16 07:59:46;;;;;;;6.45;2.33;;;;;;;;;;5034728;28;20045;-65
2022/10/16 08:02:12;;;;;;;10.05;2.78;;;;;;;;;;5037919;28;20151;-65
2022/10/16 08:04:38;;;;;;;3.70;2.30;;;;;;;;;;5029295;28;20475;-65
2022/10/16 08:07:04;;;;;;;8.43;2.80;;;;;;;;;;5022768;28;21494;-65
2022/10/16 08:09:30;;;;;;;7.95;2.63;;;;;;;;;;5020679;28;20018;-65
2022/10/16 08:11:56;;;;;;;9.60;3.13;;;;;;;;;;5024184;28;20045;-65
2022/10/16 08:14:23;;;;;;;7.65;3.88;;;;;;;;;;5023363;28;20029;-65
2022/10/16 08:16:49;;;;;;;5.20;2.40;;;;;;;;;;5021844;28;20033;-65
2022/10/16 08:19:15;;;;;;;8.93;3.00;;;;;;;;;;5017760;28;20040;-65
2022/10/16 08:21:42;;;;;;;7.20;2.88;;;;;;;;;;5033187;28;20055;-65
2022/10/16 08:24:08;;;;;;;9.52;2.70;;;;;;;;;;5029317;28;20052;-65
2022/10/16 08:26:34;;;;;;;8.10;2.88;;;;;;;;;;5039323;28;20029;-65
2022/10/16 08:29:00;;;;;;;5.50;2.85;;;;;;;;;;5031418;28;20025;-65
2022/10/16 08:31:27;;;;;;;7.25;2.80;;;;;;;;;;5035075;28;20033;-65
2022/10/16 08:33:53;;;;;;;10.32;2.75;;;;;;;;;;5028187;28;20064;-66
2022/10/16 08:36:19;;;;;;;14.05;2.50;;;;;;;;;;5032404;28;20125;-65
2022/10/16 08:38:47;;;;;;;5.18;2.75;;;;;;;;;;5030641;28;20469;-65
2022/10/16 08:41:14;;;;;;;6.75;2.25;;;;;;;;;;5029940;28;20120;-65
2022/10/16 08:43:50;;;;;;;7.18;2.88;;;;;;;;;;5031599;28;20025;-65
2022/10/16 08:46:16;;;;;;;9.70;3.15;;;;;;;;;;5033724;28;20072;-65
2022/10/16 08:48:49;;;;;;;8.65;3.05;;;;;;;;;;5031216;28;20032;-65
2022/10/16 08:51:21;;;;;;;9.75;3.15;;;;;;;;;;5029626;28;20033;-65
2022/10/16 08:53:58;;;;;;;11.30;3.30;;;;;;;;;;5030637;28;20117;-65
2022/10/16 08:56:25;;;;;;;9.68;3.67;;;;;;;;;;5034252;28;20494;-65
2022/10/16 08:58:52;;;;;;;12.13;3.50;;;;;;;;;;5035394;28;20017;-65
2022/10/16 09:01:19;;;;;;;10.98;3.42;;;;;;;;;;5031033;28;20036;-65
2022/10/16 09:03:54;;;;;;;12.15;3.63;;;;;;;;;;5036061;28;20044;-65
2022/10/16 09:06:30;;;;;;;9.20;3.20;;;;;;;;;;5030698;28;20406;-65
2022/10/16 09:09:05;;;;;;;8.77;3.20;;;;;;;;;;5035079;28;20382;-65
2022/10/16 09:11:40;;;;;;;11.63;3.42;;;;;;;;;;5030322;28;20041;-66
2022/10/16 09:14:25;;;;;;;8.60;4.20;;;;;;;;;;5026880;28;20037;-65
2022/10/16 09:16:59;;;;;;;12.60;3.95;;;;;;;;;;5032582;28;20024;-65
2022/10/16 09:19:28;;;;;;;12.95;3.92;;;;;;;;;;5034467;28;20026;-65
2022/10/16 09:21:54;;;;;;;13.88;4.25;;;;;;;;;;5035812;28;20013;-65
2022/10/16 09:24:23;;;;;;;12.82;3.75;;;;;;;;;;5033812;28;20084;-65
2022/10/16 09:26:50;;;;;;;14.32;4.65;;;;;;;;;;5030672;28;20375;-65
2022/10/16 09:29:17;;;;;;;6.50;3.10;;;;;;;;;;5034118;28;20049;-65
2022/10/16 09:31:43;;;;;;;11.10;3.33;;;;;;;;;;5038978;28;20025;-65
2022/10/16 09:34:27;;;;;;;11.65;2.92;;;;;;;;;;5033041;28;20071;-65
2022/10/16 09:36:54;;;;;;;9.73;3.53;;;;;;;;;;5027802;28;20369;-65
2022/10/16 09:39:20;;;;;;;9.20;3.35;;;;;;;;;;5030926;28;20021;-65
2022/10/16 09:41:46;;;;;;;7.20;3.00;;;;;;;;;;5023634;28;20409;-65
2022/10/16 09:44:19;;;;;;;8.65;3.60;;;;;;;;;;5023665;28;20019;-65
2022/10/16 09:46:45;;;;;;;11.25;3.05;;;;;;;;;;5029138;28;20040;-65
2022/10/16 09:49:24;;;;;;;6.78;2.63;;;;;;;;;;5022803;28;20034;-65
2022/10/16 09:51:51;;;;;;;10.63;3.08;;;;;;;;;;5030220;28;20421;-65
2022/10/16 09:54:18;;;;;;;8.88;2.65;;;;;;;;;;5032259;28;20029;-65
2022/10/16 09:56:46;;;;;;;11.98;2.67;;;;;;;;;;5037573;28;20052;-65
2022/10/16 09:59:13;;;;;;;11.15;3.20;;;;;;;;;;5028614;28;20026;-65
2022/10/16 10:01:41;;;;;;;9.20;3.38;;;;;;;;;;5021002;28;20119;-65
2022/10/16 10:04:07;;;;;;;7.10;3.25;;;;;;;;;;5029078;28;20489;-65
2022/10/16 10:06:37;;;;;;;6.63;2.90;;;;;;;;;;5029865;28;20021;-65
2022/10/16 10:09:16;;;;;;;11.65;3.88;;;;;;;;;;5023946;28;20104;-65
2022/10/16 10:12:02;;;;;;;15.00;3.97;;;;;;;;;;5023967;28;20133;-65
2022/10/16 10:14:33;;;;;;;7.35;2.08;;;;;;;;;;5027419;28;20033;-65
2022/10/16 10:17:05;;;;;;;6.38;3.08;;;;;;;;;;5020666;28;20037;-65
2022/10/16 10:19:38;;;;;;;5.38;1.33;;;;;;;;;;5030861;28;20605;-65
2022/10/16 10:22:14;;;;;;;7.78;2.03;;;;;;;;;;5028566;28;20029;-65
2022/10/16 10:24:40;;;;;;;8.30;1.98;;;;;;;;;;5026124;28;20033;-66
2022/10/16 10:27:11;;;;;;;7.47;1.70;;;;;;;;;;5034708;28;20033;-66
2022/10/16 10:30:01;;;;;;;9.43;1.80;;;;;;;;;;5035783;28;20017;-65
2022/10/16 10:32:42;;;;;;;7.00;3.00;;;;;;;;;;5022646;28;20393;-65
2022/10/16 10:35:14;;;;;;;4.72;2.40;;;;;;;;;;5029297;28;20029;-65
2022/10/16 10:37:48;;;;;;;8.30;3.17;;;;;;;;;;5036189;28;20121;-65
2022/10/16 10:40:32;;;;;;;17.08;5.05;;;;;;;;;;5035002;28;20102;-65
2022/10/16 10:42:58;;;;;;;11.25;5.20;;;;;;;;;;5035171;28;20034;-65
2022/10/16 10:45:34;;;;;;;13.05;4.28;;;;;;;;;;5033615;28;20390;-65
2022/10/16 10:48:06;;;;;;;6.78;2.63;;;;;;;;;;5038041;28;20025;-65
2022/10/16 10:50:45;;;;;;;6.00;3.00;;;;;;;;;;5027188;28;20032;-65
2022/10/16 10:53:29;;;;;;;6.70;2.70;;;;;;;;;;5029241;28;20030;-65
2022/10/16 10:56:11;;;;;;;6.50;2.50;;;;;;;;;;5028986;28;20045;-65
2022/10/16 10:58:37;;;;;;;7.00;3.33;;;;;;;;;;5026379;28;20037;-65
2022/10/16 11:01:13;;;;;;;10.32;3.00;;;;;;;;;;5025126;28;20034;-65
2022/10/16 11:03:39;;;;;;;11.35;2.72;;;;;;;;;;5021459;28;20401;-65
2022/10/16 11:06:24;;;;;;;7.90;2.60;;;;;;;;;;5026877;28;21391;-65
2022/10/16 11:09:10;;;;;;;12.23;4.78;;;;;;;;;;5025726;28;20045;-65
2022/10/16 11:11:45;;;;;;;11.75;3.70;;;;;;;;;;5028468;28;20060;-65
2022/10/16 11:14:15;;;;;;;9.15;3.20;;;;;;;;;;5029734;28;20025;-65
2022/10/16 11:16:48;;;;;;;17.83;3.03;;;;;;;;;;5023129;28;20370;-65
2022/10/16 11:19:15;;;;;;;5.68;2.65;;;;;;;;;;5024563;28;20017;-65
2022/10/16 11:21:50;;;;;;;6.30;3.17;;;;;;;;;;5023709;28;20112;-65
2022/10/16 11:24:24;;;;;;;8.63;2.75;;;;;;;;;;5031073;28;20435;-65
2022/10/16 11:26:51;;;;;;;8.32;3.92;;;;;;;;;;5026475;28;20091;-65
2022/10/16 11:29:20;;;;;;;6.72;3.03;;;;;;;;;;5030861;28;20022;-65
2022/10/16 11:31:49;;;;;;;8.15;3.50;;;;;;;;;;5029590;28;20021;-65
2022/10/16 11:34:34;;;;;;;20.80;7.53;;;;;;;;;;5026440;28;20021;-65
2022/10/16 11:37:00;;;;;;;16.83;7.88;;;;;;;;;;5025372;28;20116;-65
2022/10/16 11:39:28;;;;;;;12.50;9.95;;;;;;;;;;5027329;28;20052;-65
2022/10/16 11:41:56;;;;;;;30.05;18.67;;;;;;;;;;5032702;28;20033;-65
2022/10/16 11:44:40;;;;;;;13.85;6.80;;;;;;;;;;5035230;28;20028;-65
2022/10/16 11:47:12;;;;;;;11.10;5.32;;;;;;;;;;5031106;28;20021;-65
2022/10/16 11:49:40;;;;;;;9.98;3.85;;;;;;;;;;5033360;28;20029;-65
2022/10/16 11:52:17;;;;;;;8.57;3.75;;;;;;;;;;5033203;28;20488;-66
2022/10/16 11:55:01;;;;;;;11.10;3.47;;;;;;;;;;5027166;28;20033;-65
2022/10/16 11:57:30;;;;;;;9.40;3.42;;;;;;;;;;5028468;28;20039;-65
2022/10/16 11:59:58;;;;;;;7.22;4.45;;;;;;;;;;5026836;28;20122;-65
2022/10/16 12:02:27;;;;;;;8.60;4.68;;;;;;;;;;5029594;28;20064;-65
2022/10/16 12:05:12;;;;;;;8.55;4.45;;;;;;;;;;5027130;28;20055;-65
2022/10/16 12:07:42;;;;;;;16.98;4.35;;;;;;;;;;5031847;28;20044;-65
2022/10/16 12:10:20;;;;;;;9.18;3.30;;;;;;;;;;5025536;28;20061;-65
2022/10/16 12:12:46;;;;;;;18.77;6.82;;;;;;;;;;5021129;28;20104;-65
2022/10/16 12:15:18;;;;;;;12.27;4.30;;;;;;;;;;5021043;28;20022;-65
2022/10/16 12:17:44;;;;;;;11.60;4.07;;;;;;;;;;5019689;28;20028;-65
2022/10/16 12:20:13;;;;;;;10.35;4.88;;;;;;;;;;5023766;28;20595;-65
2022/10/16 12:23:09;;;;;;;8.10;3.67;;;;;;;;;;5026765;28;20125;-65
2022/10/16 12:25:37;;;;;;;9.85;3.75;;;;;;;;;;5021670;28;20041;-65
2022/10/16 12:28:07;;;;;;;6.20;3.28;;;;;;;;;;5024943;28;20403;-66
2022/10/16 12:30:35;;;;;;;7.13;2.65;;;;;;;;;;5026819;28;20044;-65
2022/10/16 12:33:17;;;;;;;8.85;2.53;;;;;;;;;;5026173;28;20083;-65
2022/10/16 12:35:47;;;;;;;4.07;2.00;;;;;;;;;;5025473;28;20032;-65
2022/10/16 12:38:21;;;;;;;6.13;1.50;;;;;;;;;;5029174;28;20053;-65
2022/10/16 12:40:55;;;;;;;5.50;1.70;;;;;;;;;;5030033;28;20040;-65
2022/10/16 12:43:21;;;;;;;5.28;1.58;;;;;;;;;;5032086;28;20032;-65
2022/10/16 12:45:47;;;;;;;5.22;1.73;;;;;;;;;;5031302;28;20040;-65
2022/10/16 12:48:21;;;;;;;7.50;2.35;;;;;;;;;;5033181;28;20043;-65
2022/10/16 12:50:47;;;;;;;17.45;7.95;;;;;;;;;;5030103;28;20366;-65
2022/10/16 12:53:21;;;;;;;7.20;3.20;;;;;;;;;;5031218;28;20024;-65
2022/10/16 12:55:53;;;;;;;5.22;2.35;;;;;;;;;;5024293;28;20049;-65
2022/10/16 12:58:45;;;;;;;2.73;2.13;;;;;;;;;;5031352;28;20099;-65
2022/10/16 13:01:19;;;;;;;2.15;1.63;;;;;;;;;;5037047;28;20116;-65
2022/10/16 13:04:14;;;;;;;13.40;6.63;;;;;;;;;;5031659;28;20034;-65
2022/10/16 13:06:48;;;;;;;5.63;1.90;;;;;;;;;;5028077;28;20053;-65
2022/10/16 13:09:23;;;;;;;11.98;4.07;;;;;;;;;;5030517;28;20056;-65
2022/10/16 13:11:59;;;;;;;2.50;1.77;;;;;;;;;;5031921;28;20034;-65
2022/10/16 13:14:34;;;;;;;7.97;3.20;;;;;;;;;;5025315;28;20033;-64
2022/10/16 13:17:07;;;;;;;3.75;1.23;;;;;;;;;;5034599;28;20036;-66
2022/10/16 13:19:36;;;;;;;3.67;1.80;;;;;;;;;;5032288;28;20025;-66
2022/10/16 13:22:02;;;;;;;3.70;1.05;;;;;;;;;;5031691;28;20040;-65
2022/10/16 13:24:47;;;;;;;1.58;0.88;;;;;;;;;;5026283;28;20405;-65
2022/10/16 13:27:16;;;;;;;1.00;0.60;;;;;;;;;;5019247;28;20130;-64
2022/10/16 13:29:42;;;;;;;3.63;1.95;;;;;;;;;;5026419;28;20021;-65
2022/10/16 13:32:11;;;;;;;3.22;1.50;;;;;;;;;;5032058;28;20033;-65
2022/10/16 13:34:45;;;;;;;2.10;1.50;;;;;;;;;;5017889;28;20037;-65
2022/10/16 13:37:19;;;;;;;5.18;2.20;;;;;;;;;;5028392;28;20056;-64
2022/10/16 13:39:46;;;;;;;2.10;1.35;;;;;;;;;;5025234;28;20030;-64
2022/10/16 13:42:19;;;;;;;2.25;1.88;;;;;;;;;;5023971;28;20029;-64
2022/10/16 13:44:45;;;;;;;;;;;;;;;;;;5031350;28;20033;-65
2022/10/16 13:47:16;;;;;;;1.70;1.08;;;;;;;;;;5025305;28;19931;-64
2022/10/16 13:49:42;;;;;;;3.35;1.20;;;;;;;;;;5028011;28;20028;-64
2022/10/16 13:52:17;;;;;;;3.00;1.42;;;;;;;;;;5029122;28;20045;-65
2022/10/16 13:54:43;;;;;;;2.75;1.25;;;;;;;;;;5025090;28;20169;-64
2022/10/16 13:57:13;;;;;;;1.80;1.05;;;;;;;;;;5031090;28;20033;-64
2022/10/16 13:59:39;;;;;;;1.77;1.23;;;;;;;;;;5034755;28;20057;-64
2022/10/16 14:02:18;;;;;;;1.73;1.42;;;;;;;;;;5027919;28;20115;-64
2022/10/16 14:04:45;;;;;;;1.55;0.80;;;;;;;;;;5028715;28;20033;-64
2022/10/16 14:07:15;;;;;;;1.77;0.90;;;;;;;;;;5028485;28;20041;-64
2022/10/16 14:09:41;;;;;;;2.40;0.82;;;;;;;;;;5026055;28;20488;-64
2022/10/16 14:12:11;;;;;;;4.18;1.08;;;;;;;;;;5028914;28;20061;-64
2022/10/16 14:14:42;;;;;;;3.65;0.93;;;;;;;;;;5029851;28;20034;-64
2022/10/16 14:17:14;;;;;;;5.13;1.20;;;;;;;;;;5030723;28;20037;-64
2022/10/16 14:19:40;;;;;;;3.43;0.80;;;;;;;;;;5030142;28;20083;-64
2022/10/16 14:22:21;;;;;;;4.15;0.93;;;;;;;;;;5033838;28;20057;-64
2022/10/16 14:24:47;;;;;;;3.70;1.45;;;;;;;;;;5034555;28;20034;-64
2022/10/16 14:27:43;;;;;;;2.55;0.93;;;;;;;;;;5033311;28;20033;-65
2022/10/16 14:30:15;;;;;;;2.38;0.95;;;;;;;;;;5031423;28;20037;-65
2022/10/16 14:32:42;;;;;;;22.13;10.63;;;;;;;;;;5029644;28;20378;-65
2022/10/16 14:35:28;;;;;;;11.88;5.25;;;;;;;;;;5024980;28;20038;-65
2022/10/16 14:37:55;;;;;;;4.32;1.58;;;;;;;;;;5021308;28;20512;-65
2022/10/16 14:40:26;;;;;;;5.38;2.65;;;;;;;;;;5025561;28;20013;-65
2022/10/16 14:42:53;;;;;;;1.45;1.35;;;;;;;;;;5030897;28;20136;-65
2022/10/16 14:45:20;;;;;;;6.03;3.63;;;;;;;;;;5027484;28;20025;-65
2022/10/16 14:47:58;;;;;;;3.50;1.88;;;;;;;;;;5029514;28;20394;-65
2022/10/16 14:50:24;;;;;;;4.55;1.13;;;;;;;;;;5025886;28;20090;-65
2022/10/16 14:52:50;;;;;;;3.13;1.00;;;;;;;;;;5033168;28;20056;-65